METAR AND TAF INFORMATION
METAR FOR EDDL
ADDS - METARS form results

(2201 UTC 23 August 2019)
Data provider http://aviationweather.gov/metar/data/
 
METAR text: EDDL 232150Z 04006KT CAVOK 20/12 Q1022 NOSIG
Conditions at: EDDL (DUESSELDORF , DE) observed 2150 UTC 23 August 2019
Temperature: 20.0°C (68°F)
Dewpoint: 12.0°C (54°F) [RH = 60%]
Pressure (altimeter): 30.18 inches Hg (1022.0 mb)
Winds: from the NE (40 degrees) at 7 MPH (6 knots; 3.1 m/s)
Visibility: 6 or more miles (10+ km)
Ceiling: ceiling and visibility are OK
Clouds: unknown
Weather: no significant weather observed at this time

METAR text: EDDL 232120Z 01006KT CAVOK 19/12 Q1022 NOSIG
Conditions at: EDDL (DUESSELDORF , DE) observed 2120 UTC 23 August 2019
Temperature: 19.0°C (66°F)
Dewpoint: 12.0°C (54°F) [RH = 64%]
Pressure (altimeter): 30.18 inches Hg (1022.0 mb)
Winds: from the N (10 degrees) at 7 MPH (6 knots; 3.1 m/s)
Visibility: 6 or more miles (10+ km)
Ceiling: ceiling and visibility are OK
Clouds: unknown
Weather: no significant weather observed at this time

Forecast for: EDDL (DUESSELDORF , DE)
Text: TAF EDDL 231700Z 2318/2424 VRB03KT CAVOK
Forecast period: 1800 UTC 23 August 2019 to 0000 UTC 25 August 2019
Forecast type: FROM: standard forecast or significant change
Winds: variable direction winds at 3 MPH (3 knots; 1.5 m/s)
Visibility: 6 or more miles 10+ km)
Ceiling: unknown
Clouds: missing
Weather: NSW  (no significant weather)
Text: TEMPO 2409/2417 08007KT
Forecast period: 0900 to 1700 UTC 24 August 2019
Forecast type: TEMPORARY: The following changes expected for less than half the time period
Winds: from the E (80 degrees) at 8 MPH (7 knots; 3.6 m/s)
Visibility: missing
Ceiling: unknown
Clouds: missing
Weather: no significant weather forecast for this period

 AIRPORT MAP

 RUNWAY INFORMATION
Runway 05L Runway length 8858 ft Runway width 148 ft
Runway elevation 116 ft Runway displaced threshold 984 ft Runway heading 53
Runway 23R Runway length 8858 ft Runway width 148 ft
Runway elevation 124 ft Runway displaced threshold 984 ft Runway heading 233
Runway 05R Runway length 9842 ft Runway width 148 ft
Runway elevation 121 ft Runway displaced threshold 984 ft Runway heading 53
Runway 23L Runway length 9842 ft Runway width 148 ft
Runway elevation 138 ft Runway displaced threshold 984 ft Runway heading 233

 AIRPORT FREQUENCIES
Type ACC Name LANGEN RAD Frequency 128.55 MHZ
Type APP Name DIR Frequency 128.65 MHZ
Type ATIS Name ATIS Frequency 123.775 MHZ
Type CLD Name CLNC DEL Frequency 121.775 MHZ
Type GND Name GND Frequency 121.9 MHZ
Type INFO Name LANGEN INF Frequency 129.875 MHZ
Type MISC Name DE ICING Frequency 135.225 MHZ
Type TWR Name TWR Frequency 118.3 MHZ

 AIRPORT NEAR NAVIGATION AIDS
Type VOR-DME Name Dusseldorf Frequency 115150 KHZ



Datenschutz / Privacy Policy • Impressum / Imprint • Disclaimer

Powered by Virtual Airlines Manager [v2.6.2]